Terminal Aerodrome Forecast
Issued by NWS Upton, NY

Home | Current Version | Previous Version | Text Only | Print | Product List | Glossary On
Versions: 1 2 3 4 5 6 7 8 9 10 11 12 13 14 15 16 17 18 19 20 21 22 23 24 25 26 27 28 29 30 31 32 33 34 35
000
FTUS41 KOKX 011435 AAC
TAFLGA
TAF AMD
KLGA 011435Z 0115/0212 21011KT P6SM FEW020 BKN050
      TEMPO 0115/0116 BKN020
     FM011600 22012G20KT P6SM BKN050
     FM012000 23016G24KT P6SM BKN050
     FM020100 25011KT P6SM BKN050
     FM020700 32006KT P6SM SCT050 BKN250=

USA.gov is the U.S. government's official web portal to all federal, state and local government web resources and services.